sensor_id;sensor_type;location;lat;lon;timestamp;temperature;humidity
2539;DHT22;1280;49.760;9.664;2023-03-23T00:00:59;15.50;64.40
2539;DHT22;1280;49.760;9.664;2023-03-23T00:03:28;15.50;64.50
2539;DHT22;1280;49.760;9.664;2023-03-23T00:05:58;15.50;64.60
2539;DHT22;1280;49.760;9.664;2023-03-23T00:08:32;15.50;64.60
2539;DHT22;1280;49.760;9.664;2023-03-23T00:10:59;15.60;64.60
2539;DHT22;1280;49.760;9.664;2023-03-23T00:13:28;15.50;64.70
2539;DHT22;1280;49.760;9.664;2023-03-23T00:15:55;15.50;64.80
2539;DHT22;1280;49.760;9.664;2023-03-23T00:18:24;15.50;64.90
2539;DHT22;1280;49.760;9.664;2023-03-23T00:20:52;15.60;64.80
2539;DHT22;1280;49.760;9.664;2023-03-23T00:23:21;15.50;64.80
2539;DHT22;1280;49.760;9.664;2023-03-23T00:25:52;15.50;64.90
2539;DHT22;1280;49.760;9.664;2023-03-23T00:28:24;15.50;65.00
2539;DHT22;1280;49.760;9.664;2023-03-23T00:30:58;15.40;65.10
2539;DHT22;1280;49.760;9.664;2023-03-23T00:33:39;15.40;65.10
2539;DHT22;1280;49.760;9.664;2023-03-23T00:36:08;15.40;65.20
2539;DHT22;1280;49.760;9.664;2023-03-23T00:38:37;15.40;65.20
2539;DHT22;1280;49.760;9.664;2023-03-23T00:41:06;15.50;65.10
2539;DHT22;1280;49.760;9.664;2023-03-23T00:43:34;15.40;65.20
2539;DHT22;1280;49.760;9.664;2023-03-23T00:46:06;15.40;65.20
2539;DHT22;1280;49.760;9.664;2023-03-23T00:48:37;15.40;65.20
2539;DHT22;1280;49.760;9.664;2023-03-23T00:51:10;15.40;65.20
2539;DHT22;1280;49.760;9.664;2023-03-23T00:53:41;15.40;65.30
2539;DHT22;1280;49.760;9.664;2023-03-23T00:56:09;15.30;65.40
2539;DHT22;1280;49.760;9.664;2023-03-23T00:58:36;15.40;65.40
2539;DHT22;1280;49.760;9.664;2023-03-23T01:01:06;15.40;65.20
2539;DHT22;1280;49.760;9.664;2023-03-23T01:03:34;15.40;65.20
2539;DHT22;1280;49.760;9.664;2023-03-23T01:06:10;15.30;65.30
2539;DHT22;1280;49.760;9.664;2023-03-23T01:08:42;15.30;65.40
2539;DHT22;1280;49.760;9.664;2023-03-23T01:11:15;15.30;65.40
2539;DHT22;1280;49.760;9.664;2023-03-23T01:13:43;15.30;65.40
2539;DHT22;1280;49.760;9.664;2023-03-23T01:16:13;15.30;65.30
2539;DHT22;1280;49.760;9.664;2023-03-23T01:18:40;15.30;65.40
2539;DHT22;1280;49.760;9.664;2023-03-23T01:21:10;15.20;65.50
2539;DHT22;1280;49.760;9.664;2023-03-23T01:23:38;15.20;65.50
2539;DHT22;1280;49.760;9.664;2023-03-23T01:26:08;15.20;65.60
2539;DHT22;1280;49.760;9.664;2023-03-23T01:28:36;15.20;65.60
2539;DHT22;1280;49.760;9.664;2023-03-23T01:31:05;15.10;65.60
2539;DHT22;1280;49.760;9.664;2023-03-23T01:33:34;15.10;65.60
2539;DHT22;1280;49.760;9.664;2023-03-23T01:36:04;15.20;65.60
2539;DHT22;1280;49.760;9.664;2023-03-23T01:38:33;15.20;65.60
2539;DHT22;1280;49.760;9.664;2023-03-23T01:41:01;15.10;65.60
2539;DHT22;1280;49.760;9.664;2023-03-23T01:43:29;15.10;65.60
2539;DHT22;1280;49.760;9.664;2023-03-23T01:45:57;15.10;65.60
2539;DHT22;1280;49.760;9.664;2023-03-23T01:48:29;15.10;65.60
2539;DHT22;1280;49.760;9.664;2023-03-23T01:51:02;15.10;65.60
2539;DHT22;1280;49.760;9.664;2023-03-23T01:53:34;15.10;65.70
2539;DHT22;1280;49.760;9.664;2023-03-23T01:56:04;15.10;65.70
2539;DHT22;1280;49.760;9.664;2023-03-23T01:58:34;15.10;65.70
2539;DHT22;1280;49.760;9.664;2023-03-23T02:01:05;15.10;65.70
2539;DHT22;1280;49.760;9.664;2023-03-23T02:03:35;15.10;65.70
2539;DHT22;1280;49.760;9.664;2023-03-23T02:06:06;15.10;65.70
2539;DHT22;1280;49.760;9.664;2023-03-23T02:08:43;15.10;65.70
2539;DHT22;1280;49.760;9.664;2023-03-23T02:11:13;15.10;65.70
2539;DHT22;1280;49.760;9.664;2023-03-23T02:13:41;15.00;65.70
2539;DHT22;1280;49.760;9.664;2023-03-23T02:16:14;15.10;65.70
2539;DHT22;1280;49.760;9.664;2023-03-23T02:18:56;15.10;65.70
2539;DHT22;1280;49.760;9.664;2023-03-23T02:22:07;15.00;65.70
2539;DHT22;1280;49.760;9.664;2023-03-23T02:28:05;15.00;65.70
2539;DHT22;1280;49.760;9.664;2023-03-23T02:30:49;15.00;65.70
2539;DHT22;1280;49.760;9.664;2023-03-23T02:33:36;15.00;65.70
2539;DHT22;1280;49.760;9.664;2023-03-23T02:36:13;15.00;65.70
2539;DHT22;1280;49.760;9.664;2023-03-23T02:38:46;14.90;65.70
2539;DHT22;1280;49.760;9.664;2023-03-23T02:41:18;14.90;65.70
2539;DHT22;1280;49.760;9.664;2023-03-23T02:43:47;14.90;65.70
2539;DHT22;1280;49.760;9.664;2023-03-23T02:46:16;14.90;65.70
2539;DHT22;1280;49.760;9.664;2023-03-23T02:48:46;14.90;65.70
2539;DHT22;1280;49.760;9.664;2023-03-23T02:51:17;14.90;65.70
2539;DHT22;1280;49.760;9.664;2023-03-23T02:53:47;14.80;65.80
2539;DHT22;1280;49.760;9.664;2023-03-23T02:56:19;14.80;65.80
2539;DHT22;1280;49.760;9.664;2023-03-23T02:58:47;14.80;65.80
2539;DHT22;1280;49.760;9.664;2023-03-23T03:04:39;14.80;65.70
2539;DHT22;1280;49.760;9.664;2023-03-23T03:10:07;14.80;65.90
2539;DHT22;1280;49.760;9.664;2023-03-23T03:12:44;14.80;65.90
2539;DHT22;1280;49.760;9.664;2023-03-23T03:15:18;14.90;65.90
2539;DHT22;1280;49.760;9.664;2023-03-23T03:17:53;14.90;65.90
2539;DHT22;1280;49.760;9.664;2023-03-23T03:20:25;14.80;65.90
2539;DHT22;1280;49.760;9.664;2023-03-23T03:22:54;14.80;65.90
2539;DHT22;1280;49.760;9.664;2023-03-23T03:25:23;14.80;65.90
2539;DHT22;1280;49.760;9.664;2023-03-23T03:27:51;14.80;65.90
2539;DHT22;1280;49.760;9.664;2023-03-23T03:30:30;14.80;65.90
2539;DHT22;1280;49.760;9.664;2023-03-23T03:33:00;14.80;65.90
2539;DHT22;1280;49.760;9.664;2023-03-23T03:35:30;14.80;65.90
2539;DHT22;1280;49.760;9.664;2023-03-23T03:38:05;14.90;65.90
2539;DHT22;1280;49.760;9.664;2023-03-23T03:40:33;14.90;65.90
2539;DHT22;1280;49.760;9.664;2023-03-23T03:43:02;14.80;65.90
2539;DHT22;1280;49.760;9.664;2023-03-23T03:45:29;14.80;65.90
2539;DHT22;1280;49.760;9.664;2023-03-23T03:47:56;14.80;65.90
2539;DHT22;1280;49.760;9.664;2023-03-23T03:50:23;14.80;65.90
2539;DHT22;1280;49.760;9.664;2023-03-23T03:52:52;14.80;66.00
2539;DHT22;1280;49.760;9.664;2023-03-23T03:55:19;14.80;66.00
2539;DHT22;1280;49.760;9.664;2023-03-23T03:57:47;14.80;66.00
2539;DHT22;1280;49.760;9.664;2023-03-23T04:00:25;14.80;66.00
2539;DHT22;1280;49.760;9.664;2023-03-23T04:02:53;14.80;66.00
2539;DHT22;1280;49.760;9.664;2023-03-23T04:05:41;14.70;66.10
2539;DHT22;1280;49.760;9.664;2023-03-23T04:08:12;14.80;66.10
2539;DHT22;1280;49.760;9.664;2023-03-23T04:10:40;14.80;66.10
2539;DHT22;1280;49.760;9.664;2023-03-23T04:13:07;14.70;66.10
2539;DHT22;1280;49.760;9.664;2023-03-23T04:15:53;14.70;66.20
2539;DHT22;1280;49.760;9.664;2023-03-23T04:18:20;14.70;66.20
2539;DHT22;1280;49.760;9.664;2023-03-23T04:20:49;14.70;66.20
2539;DHT22;1280;49.760;9.664;2023-03-23T04:23:21;14.70;66.30
2539;DHT22;1280;49.760;9.664;2023-03-23T04:25:59;14.70;66.30
2539;DHT22;1280;49.760;9.664;2023-03-23T04:28:33;14.70;66.30
2539;DHT22;1280;49.760;9.664;2023-03-23T04:31:18;14.70;66.30
2539;DHT22;1280;49.760;9.664;2023-03-23T04:33:52;14.60;66.30
2539;DHT22;1280;49.760;9.664;2023-03-23T04:36:21;14.60;66.40
2539;DHT22;1280;49.760;9.664;2023-03-23T04:38:59;14.60;66.50
2539;DHT22;1280;49.760;9.664;2023-03-23T04:41:29;14.60;66.50
2539;DHT22;1280;49.760;9.664;2023-03-23T04:44:12;14.70;66.50
2539;DHT22;1280;49.760;9.664;2023-03-23T04:46:54;14.60;66.60
2539;DHT22;1280;49.760;9.664;2023-03-23T04:49:22;14.70;66.60
2539;DHT22;1280;49.760;9.664;2023-03-23T04:51:55;14.70;66.60
2539;DHT22;1280;49.760;9.664;2023-03-23T04:54:38;14.60;66.60
2539;DHT22;1280;49.760;9.664;2023-03-23T04:57:05;14.60;66.70
2539;DHT22;1280;49.760;9.664;2023-03-23T04:59:36;14.60;66.70
2539;DHT22;1280;49.760;9.664;2023-03-23T05:02:09;14.60;66.70
2539;DHT22;1280;49.760;9.664;2023-03-23T05:04:37;14.60;66.80
2539;DHT22;1280;49.760;9.664;2023-03-23T05:07:10;14.60;66.80
2539;DHT22;1280;49.760;9.664;2023-03-23T05:09:46;14.70;66.80
2539;DHT22;1280;49.760;9.664;2023-03-23T05:12:17;14.70;66.80
2539;DHT22;1280;49.760;9.664;2023-03-23T05:14:53;14.70;66.80
2539;DHT22;1280;49.760;9.664;2023-03-23T05:17:24;14.70;66.90
2539;DHT22;1280;49.760;9.664;2023-03-23T05:19:54;14.70;66.90
2539;DHT22;1280;49.760;9.664;2023-03-23T05:22:39;14.70;66.90
2539;DHT22;1280;49.760;9.664;2023-03-23T05:25:09;14.80;67.00
2539;DHT22;1280;49.760;9.664;2023-03-23T05:27:43;14.80;67.00
2539;DHT22;1280;49.760;9.664;2023-03-23T05:30:22;14.80;67.00
2539;DHT22;1280;49.760;9.664;2023-03-23T05:32:49;14.70;67.10
2539;DHT22;1280;49.760;9.664;2023-03-23T05:35:42;14.80;67.20
2539;DHT22;1280;49.760;9.664;2023-03-23T05:38:09;14.80;67.20
2539;DHT22;1280;49.760;9.664;2023-03-23T05:40:39;14.80;67.30
2539;DHT22;1280;49.760;9.664;2023-03-23T05:43:25;14.80;67.40
2539;DHT22;1280;49.760;9.664;2023-03-23T05:46:10;14.70;67.50
2539;DHT22;1280;49.760;9.664;2023-03-23T05:48:38;14.70;67.60
2539;DHT22;1280;49.760;9.664;2023-03-23T05:51:10;14.70;67.70
2539;DHT22;1280;49.760;9.664;2023-03-23T05:53:42;14.70;67.80
2539;DHT22;1280;49.760;9.664;2023-03-23T05:56:12;14.70;67.90
2539;DHT22;1280;49.760;9.664;2023-03-23T05:58:52;14.70;68.00
2539;DHT22;1280;49.760;9.664;2023-03-23T06:01:20;14.70;68.10
2539;DHT22;1280;49.760;9.664;2023-03-23T06:03:47;14.70;68.10
2539;DHT22;1280;49.760;9.664;2023-03-23T06:06:20;14.70;68.20
2539;DHT22;1280;49.760;9.664;2023-03-23T06:08:52;14.80;68.20
2539;DHT22;1280;49.760;9.664;2023-03-23T06:11:30;14.80;68.20
2539;DHT22;1280;49.760;9.664;2023-03-23T06:14:17;14.70;68.30
2539;DHT22;1280;49.760;9.664;2023-03-23T06:16:46;14.70;68.30
2539;DHT22;1280;49.760;9.664;2023-03-23T06:19:14;14.70;68.50
2539;DHT22;1280;49.760;9.664;2023-03-23T06:21:50;14.70;68.50
2539;DHT22;1280;49.760;9.664;2023-03-23T06:24:52;14.70;68.50
2539;DHT22;1280;49.760;9.664;2023-03-23T06:27:36;14.70;68.60
2539;DHT22;1280;49.760;9.664;2023-03-23T06:30:05;14.80;68.50
2539;DHT22;1280;49.760;9.664;2023-03-23T06:32:33;14.80;68.50
2539;DHT22;1280;49.760;9.664;2023-03-23T06:35:01;14.70;68.60
2539;DHT22;1280;49.760;9.664;2023-03-23T06:37:50;14.70;68.70
2539;DHT22;1280;49.760;9.664;2023-03-23T06:40:26;14.80;68.80
2539;DHT22;1280;49.760;9.664;2023-03-23T06:42:56;14.80;68.80
2539;DHT22;1280;49.760;9.664;2023-03-23T06:45:41;14.80;68.80
2539;DHT22;1280;49.760;9.664;2023-03-23T06:48:28;14.80;68.90
2539;DHT22;1280;49.760;9.664;2023-03-23T06:50:57;14.80;68.90
2539;DHT22;1280;49.760;9.664;2023-03-23T06:53:26;14.80;68.90
2539;DHT22;1280;49.760;9.664;2023-03-23T06:55:55;14.80;68.90
2539;DHT22;1280;49.760;9.664;2023-03-23T06:58:27;14.90;68.90
2539;DHT22;1280;49.760;9.664;2023-03-23T07:00:55;14.80;69.00
2539;DHT22;1280;49.760;9.664;2023-03-23T07:03:29;14.80;69.10
2539;DHT22;1280;49.760;9.664;2023-03-23T07:05:58;14.90;69.00
2539;DHT22;1280;49.760;9.664;2023-03-23T07:08:29;14.90;69.00
2539;DHT22;1280;49.760;9.664;2023-03-23T07:10:58;14.80;69.10
2539;DHT22;1280;49.760;9.664;2023-03-23T07:13:29;14.90;69.00
2539;DHT22;1280;49.760;9.664;2023-03-23T07:15:59;15.00;68.90
2539;DHT22;1280;49.760;9.664;2023-03-23T07:18:28;14.90;69.00
2539;DHT22;1280;49.760;9.664;2023-03-23T07:20:57;14.90;69.00
2539;DHT22;1280;49.760;9.664;2023-03-23T07:23:29;14.90;69.10
2539;DHT22;1280;49.760;9.664;2023-03-23T07:26:06;14.90;69.10
2539;DHT22;1280;49.760;9.664;2023-03-23T07:28:47;14.80;69.20
2539;DHT22;1280;49.760;9.664;2023-03-23T07:31:29;14.80;69.20
2539;DHT22;1280;49.760;9.664;2023-03-23T07:33:56;14.90;69.20
2539;DHT22;1280;49.760;9.664;2023-03-23T07:36:34;14.80;69.20
2539;DHT22;1280;49.760;9.664;2023-03-23T07:39:04;14.80;69.20
2539;DHT22;1280;49.760;9.664;2023-03-23T07:41:32;14.90;69.30
2539;DHT22;1280;49.760;9.664;2023-03-23T07:44:06;14.90;69.20
2539;DHT22;1280;49.760;9.664;2023-03-23T07:46:35;14.90;69.20
2539;DHT22;1280;49.760;9.664;2023-03-23T07:49:22;14.90;69.30
2539;DHT22;1280;49.760;9.664;2023-03-23T07:52:00;14.90;69.30
2539;DHT22;1280;49.760;9.664;2023-03-23T07:54:29;14.90;69.50
2539;DHT22;1280;49.760;9.664;2023-03-23T07:57:02;14.90;69.60
2539;DHT22;1280;49.760;9.664;2023-03-23T07:59:33;14.90;69.60
2539;DHT22;1280;49.760;9.664;2023-03-23T08:02:00;14.90;69.70
2539;DHT22;1280;49.760;9.664;2023-03-23T08:04:51;14.90;70.00
2539;DHT22;1280;49.760;9.664;2023-03-23T08:07:23;14.90;70.10
2539;DHT22;1280;49.760;9.664;2023-03-23T08:09:57;15.00;70.20
2539;DHT22;1280;49.760;9.664;2023-03-23T08:12:55;15.00;70.30
2539;DHT22;1280;49.760;9.664;2023-03-23T08:15:56;15.00;70.40
2539;DHT22;1280;49.760;9.664;2023-03-23T08:19:01;15.00;70.60
2539;DHT22;1280;49.760;9.664;2023-03-23T08:22:00;15.00;70.60
2539;DHT22;1280;49.760;9.664;2023-03-23T08:24:47;15.10;70.70
2539;DHT22;1280;49.760;9.664;2023-03-23T08:27:30;15.00;70.80
2539;DHT22;1280;49.760;9.664;2023-03-23T08:30:11;15.10;70.80
2539;DHT22;1280;49.760;9.664;2023-03-23T08:32:46;15.20;70.90
2539;DHT22;1280;49.760;9.664;2023-03-23T08:35:28;15.20;71.00
2539;DHT22;1280;49.760;9.664;2023-03-23T08:38:06;15.30;71.00
2539;DHT22;1280;49.760;9.664;2023-03-23T08:40:51;15.30;70.90
2539;DHT22;1280;49.760;9.664;2023-03-23T08:43:38;15.30;71.00
2539;DHT22;1280;49.760;9.664;2023-03-23T08:46:30;15.40;71.00
2539;DHT22;1280;49.760;9.664;2023-03-23T08:49:17;15.40;71.00
2539;DHT22;1280;49.760;9.664;2023-03-23T08:52:06;15.40;71.10
2539;DHT22;1280;49.760;9.664;2023-03-23T08:54:53;15.40;71.00
2539;DHT22;1280;49.760;9.664;2023-03-23T08:57:38;15.40;71.10
2539;DHT22;1280;49.760;9.664;2023-03-23T09:00:29;15.40;71.20
2539;DHT22;1280;49.760;9.664;2023-03-23T09:03:15;15.40;71.20
2539;DHT22;1280;49.760;9.664;2023-03-23T09:06:02;15.30;71.30
2539;DHT22;1280;49.760;9.664;2023-03-23T09:08:50;15.30;71.40
2539;DHT22;1280;49.760;9.664;2023-03-23T09:11:17;15.30;71.60
2539;DHT22;1280;49.760;9.664;2023-03-23T09:13:45;15.30;71.70
2539;DHT22;1280;49.760;9.664;2023-03-23T09:16:12;15.30;71.80
2539;DHT22;1280;49.760;9.664;2023-03-23T09:18:40;15.40;71.90
2539;DHT22;1280;49.760;9.664;2023-03-23T09:21:08;15.40;71.90
2539;DHT22;1280;49.760;9.664;2023-03-23T09:23:35;15.50;71.90
2539;DHT22;1280;49.760;9.664;2023-03-23T09:26:03;15.50;71.90
2539;DHT22;1280;49.760;9.664;2023-03-23T09:28:30;15.50;72.00
2539;DHT22;1280;49.760;9.664;2023-03-23T09:30:57;15.50;71.90
2539;DHT22;1280;49.760;9.664;2023-03-23T09:33:25;15.50;71.90
2539;DHT22;1280;49.760;9.664;2023-03-23T09:35:54;15.50;72.00
2539;DHT22;1280;49.760;9.664;2023-03-23T09:38:23;15.60;72.00
2539;DHT22;1280;49.760;9.664;2023-03-23T09:41:03;15.50;72.00
2539;DHT22;1280;49.760;9.664;2023-03-23T09:43:46;15.50;72.20
2539;DHT22;1280;49.760;9.664;2023-03-23T09:46:35;15.60;72.10
2539;DHT22;1280;49.760;9.664;2023-03-23T09:49:09;15.60;71.90
2539;DHT22;1280;49.760;9.664;2023-03-23T09:51:43;15.60;72.00
2539;DHT22;1280;49.760;9.664;2023-03-23T09:54:19;15.50;71.90
2539;DHT22;1280;49.760;9.664;2023-03-23T09:56:48;15.50;72.00
2539;DHT22;1280;49.760;9.664;2023-03-23T09:59:20;15.60;72.00
2539;DHT22;1280;49.760;9.664;2023-03-23T10:01:50;15.60;72.10
2539;DHT22;1280;49.760;9.664;2023-03-23T10:04:34;15.60;72.20
2539;DHT22;1280;49.760;9.664;2023-03-23T10:07:10;15.60;72.30
2539;DHT22;1280;49.760;9.664;2023-03-23T10:09:39;15.60;72.40
2539;DHT22;1280;49.760;9.664;2023-03-23T10:12:17;15.50;72.40
2539;DHT22;1280;49.760;9.664;2023-03-23T10:14:59;15.50;72.40
2539;DHT22;1280;49.760;9.664;2023-03-23T10:17:31;15.50;72.50
2539;DHT22;1280;49.760;9.664;2023-03-23T10:20:10;15.40;72.50
2539;DHT22;1280;49.760;9.664;2023-03-23T10:22:47;15.40;72.60
2539;DHT22;1280;49.760;9.664;2023-03-23T10:25:23;15.40;72.60
2539;DHT22;1280;49.760;9.664;2023-03-23T10:27:55;15.40;72.70
2539;DHT22;1280;49.760;9.664;2023-03-23T10:30:27;15.40;72.70
2539;DHT22;1280;49.760;9.664;2023-03-23T10:32:59;15.40;72.80
2539;DHT22;1280;49.760;9.664;2023-03-23T10:35:32;15.40;72.80
2539;DHT22;1280;49.760;9.664;2023-03-23T10:38:03;15.50;72.70
2539;DHT22;1280;49.760;9.664;2023-03-23T10:40:32;15.40;72.90
2539;DHT22;1280;49.760;9.664;2023-03-23T10:43:00;15.50;72.90
2539;DHT22;1280;49.760;9.664;2023-03-23T10:45:29;15.60;72.70
2539;DHT22;1280;49.760;9.664;2023-03-23T10:48:04;15.60;72.70
2539;DHT22;1280;49.760;9.664;2023-03-23T10:50:36;15.70;72.80
2539;DHT22;1280;49.760;9.664;2023-03-23T10:53:14;15.70;72.70
2539;DHT22;1280;49.760;9.664;2023-03-23T10:55:44;15.70;72.60
2539;DHT22;1280;49.760;9.664;2023-03-23T10:58:22;15.80;72.50
2539;DHT22;1280;49.760;9.664;2023-03-23T11:00:50;15.80;72.40
2539;DHT22;1280;49.760;9.664;2023-03-23T11:03:25;15.80;72.40
2539;DHT22;1280;49.760;9.664;2023-03-23T11:05:57;15.80;72.30
2539;DHT22;1280;49.760;9.664;2023-03-23T11:08:26;15.80;72.30
2539;DHT22;1280;49.760;9.664;2023-03-23T11:10:59;15.80;72.30
2539;DHT22;1280;49.760;9.664;2023-03-23T11:13:30;15.80;72.20
2539;DHT22;1280;49.760;9.664;2023-03-23T11:15:58;15.80;71.90
2539;DHT22;1280;49.760;9.664;2023-03-23T11:18:26;15.80;71.90
2539;DHT22;1280;49.760;9.664;2023-03-23T11:20:55;15.70;71.80
2539;DHT22;1280;49.760;9.664;2023-03-23T11:23:25;15.80;71.50
2539;DHT22;1280;49.760;9.664;2023-03-23T11:26:10;15.70;71.50
2539;DHT22;1280;49.760;9.664;2023-03-23T11:28:43;15.70;71.40
2539;DHT22;1280;49.760;9.664;2023-03-23T11:31:11;15.70;71.50
2539;DHT22;1280;49.760;9.664;2023-03-23T11:33:50;15.60;71.40
2539;DHT22;1280;49.760;9.664;2023-03-23T11:36:20;15.60;71.50
2539;DHT22;1280;49.760;9.664;2023-03-23T11:38:53;15.60;71.50
2539;DHT22;1280;49.760;9.664;2023-03-23T11:41:28;15.60;71.40
2539;DHT22;1280;49.760;9.664;2023-03-23T11:43:56;15.60;71.50
2539;DHT22;1280;49.760;9.664;2023-03-23T11:46:30;15.60;71.60
2539;DHT22;1280;49.760;9.664;2023-03-23T11:49:02;15.60;71.80
2539;DHT22;1280;49.760;9.664;2023-03-23T11:51:34;15.60;72.00
2539;DHT22;1280;49.760;9.664;2023-03-23T11:54:09;15.60;72.00
2539;DHT22;1280;49.760;9.664;2023-03-23T11:56:41;15.60;72.20
2539;DHT22;1280;49.760;9.664;2023-03-23T11:59:12;15.60;72.40
2539;DHT22;1280;49.760;9.664;2023-03-23T12:01:47;15.60;72.50
2539;DHT22;1280;49.760;9.664;2023-03-23T12:04:37;15.50;72.80
2539;DHT22;1280;49.760;9.664;2023-03-23T12:07:28;15.40;73.00
2539;DHT22;1280;49.760;9.664;2023-03-23T12:10:05;15.40;73.10
2539;DHT22;1280;49.760;9.664;2023-03-23T12:12:42;15.40;73.20
2539;DHT22;1280;49.760;9.664;2023-03-23T12:15:26;15.40;73.40
2539;DHT22;1280;49.760;9.664;2023-03-23T12:18:02;15.40;73.50
2539;DHT22;1280;49.760;9.664;2023-03-23T12:20:39;15.40;73.60
2539;DHT22;1280;49.760;9.664;2023-03-23T12:23:21;15.40;73.70
2539;DHT22;1280;49.760;9.664;2023-03-23T12:26:05;15.40;73.90
2539;DHT22;1280;49.760;9.664;2023-03-23T12:28:49;15.40;73.90
2539;DHT22;1280;49.760;9.664;2023-03-23T12:31:26;15.40;74.10
2539;DHT22;1280;49.760;9.664;2023-03-23T12:33:58;15.40;74.20
2539;DHT22;1280;49.760;9.664;2023-03-23T12:36:38;15.40;74.40
2539;DHT22;1280;49.760;9.664;2023-03-23T12:39:57;15.40;74.70
2539;DHT22;1280;49.760;9.664;2023-03-23T12:42:31;15.60;74.70
2539;DHT22;1280;49.760;9.664;2023-03-23T12:45:06;15.60;74.70
2539;DHT22;1280;49.760;9.664;2023-03-23T12:47:39;15.70;74.70
2539;DHT22;1280;49.760;9.664;2023-03-23T12:50:14;15.70;74.80
2539;DHT22;1280;49.760;9.664;2023-03-23T12:52:48;15.70;74.80
2539;DHT22;1280;49.760;9.664;2023-03-23T12:55:21;15.70;75.10
2539;DHT22;1280;49.760;9.664;2023-03-23T12:57:53;15.80;75.00
2539;DHT22;1280;49.760;9.664;2023-03-23T13:00:28;15.80;75.00
2539;DHT22;1280;49.760;9.664;2023-03-23T13:03:00;15.80;74.90
2539;DHT22;1280;49.760;9.664;2023-03-23T13:05:40;15.80;74.90
2539;DHT22;1280;49.760;9.664;2023-03-23T13:08:15;15.90;74.80
2539;DHT22;1280;49.760;9.664;2023-03-23T13:10:46;16.00;74.70
2539;DHT22;1280;49.760;9.664;2023-03-23T13:13:17;16.00;74.70
2539;DHT22;1280;49.760;9.664;2023-03-23T13:15:54;15.90;74.80
2539;DHT22;1280;49.760;9.664;2023-03-23T13:18:30;16.00;74.80
2539;DHT22;1280;49.760;9.664;2023-03-23T13:21:07;16.00;74.80
2539;DHT22;1280;49.760;9.664;2023-03-23T13:23:40;16.00;74.70
2539;DHT22;1280;49.760;9.664;2023-03-23T13:26:09;16.10;74.50
2539;DHT22;1280;49.760;9.664;2023-03-23T13:28:56;16.10;74.40
2539;DHT22;1280;49.760;9.664;2023-03-23T13:31:27;16.10;74.50
2539;DHT22;1280;49.760;9.664;2023-03-23T13:34:05;16.20;74.40
2539;DHT22;1280;49.760;9.664;2023-03-23T13:36:36;16.30;74.40
2539;DHT22;1280;49.760;9.664;2023-03-23T13:39:06;16.30;74.40
2539;DHT22;1280;49.760;9.664;2023-03-23T13:41:44;16.30;74.30
2539;DHT22;1280;49.760;9.664;2023-03-23T13:44:18;16.30;74.20
2539;DHT22;1280;49.760;9.664;2023-03-23T13:47:04;16.30;73.80
2539;DHT22;1280;49.760;9.664;2023-03-23T13:49:33;16.30;73.50
2539;DHT22;1280;49.760;9.664;2023-03-23T13:52:21;16.30;73.30
2539;DHT22;1280;49.760;9.664;2023-03-23T13:54:50;16.20;73.40
2539;DHT22;1280;49.760;9.664;2023-03-23T13:57:26;16.20;73.40
2539;DHT22;1280;49.760;9.664;2023-03-23T14:00:11;16.30;73.30
2539;DHT22;1280;49.760;9.664;2023-03-23T14:02:45;16.30;73.50
2539;DHT22;1280;49.760;9.664;2023-03-23T14:05:34;16.40;73.70
2539;DHT22;1280;49.760;9.664;2023-03-23T14:08:13;16.50;73.70
2539;DHT22;1280;49.760;9.664;2023-03-23T14:10:48;16.50;73.50
2539;DHT22;1280;49.760;9.664;2023-03-23T14:13:19;16.70;73.40
2539;DHT22;1280;49.760;9.664;2023-03-23T14:15:58;16.70;73.30
2539;DHT22;1280;49.760;9.664;2023-03-23T14:18:32;16.80;73.30
2539;DHT22;1280;49.760;9.664;2023-03-23T14:21:01;16.80;73.10
2539;DHT22;1280;49.760;9.664;2023-03-23T14:23:32;16.80;73.00
2539;DHT22;1280;49.760;9.664;2023-03-23T14:26:02;16.80;72.80
2539;DHT22;1280;49.760;9.664;2023-03-23T14:28:39;16.80;72.70
2539;DHT22;1280;49.760;9.664;2023-03-23T14:31:16;16.80;72.60
2539;DHT22;1280;49.760;9.664;2023-03-23T14:33:50;16.80;72.60
2539;DHT22;1280;49.760;9.664;2023-03-23T14:36:20;16.80;72.20
2539;DHT22;1280;49.760;9.664;2023-03-23T14:38:55;16.80;72.30
2539;DHT22;1280;49.760;9.664;2023-03-23T14:41:22;16.80;72.20
2539;DHT22;1280;49.760;9.664;2023-03-23T14:43:50;16.70;72.10
2539;DHT22;1280;49.760;9.664;2023-03-23T14:46:17;16.80;72.10
2539;DHT22;1280;49.760;9.664;2023-03-23T14:48:45;16.70;72.00
2539;DHT22;1280;49.760;9.664;2023-03-23T14:51:18;16.70;71.90
2539;DHT22;1280;49.760;9.664;2023-03-23T14:53:46;16.70;71.80
2539;DHT22;1280;49.760;9.664;2023-03-23T14:56:16;16.60;71.70
2539;DHT22;1280;49.760;9.664;2023-03-23T14:58:44;16.60;71.60
2539;DHT22;1280;49.760;9.664;2023-03-23T15:01:14;16.60;71.50
2539;DHT22;1280;49.760;9.664;2023-03-23T15:03:44;16.60;71.60
2539;DHT22;1280;49.760;9.664;2023-03-23T15:06:13;16.60;71.40
2539;DHT22;1280;49.760;9.664;2023-03-23T15:08:46;16.50;71.50
2539;DHT22;1280;49.760;9.664;2023-03-23T15:11:23;16.50;71.40
2539;DHT22;1280;49.760;9.664;2023-03-23T15:13:53;16.40;71.40
2539;DHT22;1280;49.760;9.664;2023-03-23T15:16:23;16.30;71.60
2539;DHT22;1280;49.760;9.664;2023-03-23T15:18:53;16.30;71.70
2539;DHT22;1280;49.760;9.664;2023-03-23T15:21:25;16.20;71.80
2539;DHT22;1280;49.760;9.664;2023-03-23T15:23:58;16.20;71.80
2539;DHT22;1280;49.760;9.664;2023-03-23T15:26:31;16.20;71.70
2539;DHT22;1280;49.760;9.664;2023-03-23T15:29:18;16.20;71.80
2539;DHT22;1280;49.760;9.664;2023-03-23T15:31:47;16.10;72.00
2539;DHT22;1280;49.760;9.664;2023-03-23T15:34:20;16.10;72.10
2539;DHT22;1280;49.760;9.664;2023-03-23T15:36:54;16.00;72.20
2539;DHT22;1280;49.760;9.664;2023-03-23T15:39:23;16.00;72.40
2539;DHT22;1280;49.760;9.664;2023-03-23T15:41:52;16.00;72.40
2539;DHT22;1280;49.760;9.664;2023-03-23T15:44:29;15.90;72.50
2539;DHT22;1280;49.760;9.664;2023-03-23T15:47:14;15.90;72.70
2539;DHT22;1280;49.760;9.664;2023-03-23T15:49:46;15.90;72.80
2539;DHT22;1280;49.760;9.664;2023-03-23T15:52:15;16.00;72.70
2539;DHT22;1280;49.760;9.664;2023-03-23T15:54:48;16.00;72.70
2539;DHT22;1280;49.760;9.664;2023-03-23T15:57:17;16.00;72.70
2539;DHT22;1280;49.760;9.664;2023-03-23T15:59:44;16.00;72.70
2539;DHT22;1280;49.760;9.664;2023-03-23T16:02:19;16.00;72.60
2539;DHT22;1280;49.760;9.664;2023-03-23T16:04:49;16.00;72.70
2539;DHT22;1280;49.760;9.664;2023-03-23T16:07:22;16.00;72.80
2539;DHT22;1280;49.760;9.664;2023-03-23T16:09:51;16.00;72.80
2539;DHT22;1280;49.760;9.664;2023-03-23T16:12:19;16.00;72.70
2539;DHT22;1280;49.760;9.664;2023-03-23T16:14:48;16.00;72.90
2539;DHT22;1280;49.760;9.664;2023-03-23T16:17:18;16.00;72.90
2539;DHT22;1280;49.760;9.664;2023-03-23T16:19:47;16.00;72.80
2539;DHT22;1280;49.760;9.664;2023-03-23T16:22:15;15.90;72.90
2539;DHT22;1280;49.760;9.664;2023-03-23T16:24:44;16.00;72.90
2539;DHT22;1280;49.760;9.664;2023-03-23T16:27:15;16.00;72.90
2539;DHT22;1280;49.760;9.664;2023-03-23T16:29:43;16.00;72.70
2539;DHT22;1280;49.760;9.664;2023-03-23T16:32:29;15.90;72.80
2539;DHT22;1280;49.760;9.664;2023-03-23T16:34:57;15.90;72.80
2539;DHT22;1280;49.760;9.664;2023-03-23T16:37:26;15.90;72.80
2539;DHT22;1280;49.760;9.664;2023-03-23T16:39:59;15.90;72.80
2539;DHT22;1280;49.760;9.664;2023-03-23T16:42:28;15.90;72.70
2539;DHT22;1280;49.760;9.664;2023-03-23T16:44:57;15.90;72.70
2539;DHT22;1280;49.760;9.664;2023-03-23T16:47:26;15.90;72.70
2539;DHT22;1280;49.760;9.664;2023-03-23T16:49:54;15.90;72.70
2539;DHT22;1280;49.760;9.664;2023-03-23T16:52:22;15.90;72.60
2539;DHT22;1280;49.760;9.664;2023-03-23T16:54:51;15.90;72.70